createdAt,value
2022-11-21T00:00:45.859Z,9.20
2022-11-21T00:03:12.966Z,9.20
2022-11-21T00:05:41.858Z,9.20
2022-11-21T00:08:09.360Z,9.20
2022-11-21T00:10:37.133Z,9.20
2022-11-21T00:13:03.709Z,9.20
2022-11-21T00:15:30.382Z,9.20
2022-11-21T00:17:56.984Z,9.20
2022-11-21T00:20:23.749Z,9.20
2022-11-21T00:22:50.643Z,9.20
2022-11-21T00:25:17.170Z,9.20
2022-11-21T00:27:43.781Z,9.20
2022-11-21T00:30:11.177Z,9.20
2022-11-21T00:32:37.747Z,9.20
2022-11-21T00:35:05.013Z,9.20
2022-11-21T00:37:35.134Z,9.20
2022-11-21T00:40:01.721Z,9.20
2022-11-21T00:42:28.322Z,9.20
2022-11-21T00:44:54.880Z,9.20
2022-11-21T00:47:21.685Z,9.20
2022-11-21T00:49:48.261Z,9.20
2022-11-21T00:52:16.064Z,9.20
2022-11-21T00:54:42.701Z,9.20
2022-11-21T00:57:09.247Z,9.20
2022-11-21T00:59:35.928Z,9.20
2022-11-21T01:02:02.497Z,9.20
2022-11-21T01:04:32.888Z,9.20
2022-11-21T01:06:59.531Z,9.20
2022-11-21T01:09:26.654Z,9.20
2022-11-21T01:11:53.199Z,9.20
2022-11-21T01:14:19.803Z,9.20
2022-11-21T01:16:46.417Z,9.20
2022-11-21T01:19:12.991Z,9.20
2022-11-21T01:21:39.536Z,9.20
2022-11-21T01:24:06.228Z,9.20
2022-11-21T01:26:38.141Z,9.20
2022-11-21T01:29:05.816Z,9.20
2022-11-21T01:31:32.401Z,9.20
2022-11-21T01:34:00.147Z,9.20
2022-11-21T01:36:28.256Z,9.10
2022-11-21T01:38:57.574Z,9.10
2022-11-21T01:41:28.462Z,9.20
2022-11-21T01:43:55.016Z,9.10
2022-11-21T01:46:22.247Z,9.20
2022-11-21T01:48:52.653Z,9.20
2022-11-21T01:51:45.715Z,9.20
2022-11-21T01:54:15.157Z,9.10
2022-11-21T01:56:48.866Z,9.10
2022-11-21T01:59:23.097Z,9.10
2022-11-21T02:01:52.700Z,9.20
2022-11-21T02:04:20.206Z,9.10
2022-11-21T02:06:49.431Z,9.10
2022-11-21T02:09:16.081Z,9.10
2022-11-21T02:11:49.412Z,9.10
2022-11-21T02:14:16.147Z,9.10
2022-11-21T02:16:43.030Z,9.10
2022-11-21T02:19:12.772Z,9.10
2022-11-21T02:21:52.419Z,9.10
2022-11-21T02:24:34.066Z,9.10
2022-11-21T02:27:00.932Z,9.10
2022-11-21T02:29:27.693Z,9.10
2022-11-21T02:31:54.287Z,9.10
2022-11-21T02:34:20.898Z,9.10
2022-11-21T02:36:48.115Z,9.10
2022-11-21T02:39:23.389Z,9.00
2022-11-21T02:41:57.663Z,9.10
2022-11-21T02:44:34.535Z,9.00
2022-11-21T02:47:01.181Z,9.00
2022-11-21T02:49:39.686Z,9.00
2022-11-21T02:52:06.469Z,9.10
2022-11-21T02:54:33.124Z,9.00
2022-11-21T02:56:59.740Z,9.00
2022-11-21T02:59:26.302Z,9.00
2022-11-21T03:01:52.952Z,9.00
2022-11-21T03:04:19.511Z,9.00
2022-11-21T03:06:46.058Z,9.00
2022-11-21T03:09:12.910Z,9.00
2022-11-21T03:11:39.473Z,9.00
2022-11-21T03:14:05.983Z,9.00
2022-11-21T03:16:32.582Z,9.00
2022-11-21T03:18:59.663Z,9.00
2022-11-21T03:21:26.226Z,9.00
2022-11-21T03:23:52.822Z,9.00
2022-11-21T03:26:19.385Z,9.00
2022-11-21T03:28:45.984Z,9.00
2022-11-21T03:31:12.563Z,9.00
2022-11-21T03:33:39.205Z,9.00
2022-11-21T03:36:05.856Z,9.00
2022-11-21T03:38:32.432Z,9.00
2022-11-21T03:41:03.853Z,9.00
2022-11-21T03:43:30.410Z,9.00
2022-11-21T03:45:56.983Z,9.00
2022-11-21T03:48:23.544Z,8.90
2022-11-21T03:50:50.128Z,9.00
2022-11-21T03:53:16.674Z,8.90
2022-11-21T03:55:43.417Z,8.90
2022-11-21T03:58:10.011Z,8.90
2022-11-21T04:00:36.593Z,8.90
2022-11-21T04:03:03.413Z,8.90
2022-11-21T04:05:29.966Z,8.90
2022-11-21T04:07:56.562Z,8.90
2022-11-21T04:10:24.201Z,8.90
2022-11-21T04:12:50.804Z,8.90
2022-11-21T04:15:17.372Z,8.90
2022-11-21T04:17:43.900Z,8.90
2022-11-21T04:20:11.200Z,8.90
2022-11-21T04:22:37.825Z,8.90
2022-11-21T04:25:04.693Z,8.90
2022-11-21T04:27:31.268Z,8.80
2022-11-21T04:29:57.838Z,8.80
2022-11-21T04:32:24.432Z,8.80
2022-11-21T04:34:51.021Z,8.80
2022-11-21T04:37:17.672Z,8.80
2022-11-21T04:39:44.336Z,8.80
2022-11-21T04:42:10.874Z,8.80
2022-11-21T04:44:37.509Z,8.80
2022-11-21T04:47:05.706Z,8.80
2022-11-21T04:49:32.656Z,8.80
2022-11-21T04:51:59.226Z,8.80
2022-11-21T04:54:26.026Z,8.70
2022-11-21T04:56:52.857Z,8.70
2022-11-21T04:59:19.420Z,8.70
2022-11-21T05:01:46.012Z,8.70
2022-11-21T05:04:12.566Z,8.70
2022-11-21T05:06:39.083Z,8.70
2022-11-21T05:09:05.681Z,8.70
2022-11-21T05:11:50.780Z,8.70
2022-11-21T05:14:17.242Z,8.70
2022-11-21T05:16:43.783Z,8.70
2022-11-21T05:19:10.438Z,8.60
2022-11-21T05:21:37.081Z,8.60
2022-11-21T05:24:03.825Z,8.60
2022-11-21T05:26:30.415Z,8.60
2022-11-21T05:28:57.008Z,8.60
2022-11-21T05:31:23.565Z,8.60
2022-11-21T05:33:50.167Z,8.60
2022-11-21T05:36:16.753Z,8.60
2022-11-21T05:38:43.400Z,8.60
2022-11-21T05:41:10.008Z,8.50
2022-11-21T05:43:49.037Z,8.30
2022-11-21T05:46:20.502Z,8.20
2022-11-21T05:48:48.621Z,8.30
2022-11-21T05:51:16.575Z,8.30
2022-11-21T05:53:43.979Z,8.30
2022-11-21T05:56:16.172Z,8.30
2022-11-21T05:58:43.213Z,8.20
2022-11-21T06:01:11.970Z,8.20
2022-11-21T06:03:40.175Z,8.20
2022-11-21T06:06:14.859Z,8.20
2022-11-21T06:08:43.702Z,8.20
2022-11-21T06:11:15.335Z,8.20
2022-11-21T06:13:42.332Z,8.20
2022-11-21T06:16:11.538Z,8.20
2022-11-21T06:18:40.229Z,8.20
2022-11-21T06:21:13.300Z,8.20
2022-11-21T06:23:40.011Z,8.20
2022-11-21T06:26:09.364Z,8.10
2022-11-21T06:28:38.698Z,8.10
2022-11-21T06:31:05.980Z,8.10
2022-11-21T06:33:33.728Z,8.10
2022-11-21T06:36:11.919Z,8.10
2022-11-21T06:38:39.257Z,8.10
2022-11-21T06:41:15.932Z,8.10
2022-11-21T06:43:43.077Z,8.10
2022-11-21T06:46:10.414Z,8.10
2022-11-21T06:48:37.711Z,8.10
2022-11-21T06:51:17.619Z,8.00
2022-11-21T06:53:44.627Z,8.00
2022-11-21T06:56:11.507Z,8.00
2022-11-21T06:58:38.103Z,8.00
2022-11-21T07:01:10.494Z,8.00
2022-11-21T07:03:36.998Z,8.00
2022-11-21T07:06:04.563Z,8.00
2022-11-21T07:08:33.609Z,7.90
2022-11-21T07:13:52.069Z,7.90
2022-11-21T07:16:18.789Z,7.90
2022-11-21T07:18:45.640Z,7.90
2022-11-21T07:21:12.404Z,7.90
2022-11-21T07:23:39.238Z,7.90
2022-11-21T07:26:08.287Z,7.90
2022-11-21T07:28:35.329Z,7.90
2022-11-21T07:31:07.060Z,7.90
2022-11-21T07:33:37.502Z,7.90
2022-11-21T07:36:04.348Z,7.80
2022-11-21T07:38:30.906Z,7.80
2022-11-21T07:40:57.490Z,7.80
2022-11-21T07:43:24.120Z,7.80
2022-11-21T07:45:50.675Z,7.80
2022-11-21T07:48:17.371Z,7.80
2022-11-21T07:50:43.903Z,7.80
2022-11-21T07:53:14.095Z,7.80
2022-11-21T07:55:41.184Z,7.80
2022-11-21T07:58:10.066Z,7.80
2022-11-21T08:00:38.822Z,7.80
2022-11-21T08:03:07.021Z,7.80
2022-11-21T08:05:38.252Z,7.70
2022-11-21T08:08:06.324Z,7.70
2022-11-21T08:10:33.206Z,7.80
2022-11-21T08:12:59.792Z,7.70
2022-11-21T08:15:26.389Z,7.70
2022-11-21T08:17:53.002Z,7.70
2022-11-21T08:20:19.576Z,7.70
2022-11-21T08:22:46.221Z,7.80
2022-11-21T08:25:12.816Z,7.80
2022-11-21T08:27:40.380Z,7.70
2022-11-21T08:30:09.045Z,7.70
2022-11-21T08:32:35.833Z,7.70
2022-11-21T08:35:02.600Z,7.70
2022-11-21T08:37:29.549Z,7.70
2022-11-21T08:39:58.980Z,7.70
2022-11-21T08:42:26.089Z,7.70
2022-11-21T08:44:52.826Z,7.70
2022-11-21T08:47:20.639Z,7.70
2022-11-21T08:49:48.072Z,7.70
2022-11-21T08:52:17.425Z,7.70
2022-11-21T08:54:45.024Z,7.70
2022-11-21T08:57:12.095Z,7.70
2022-11-21T08:59:38.668Z,7.70
2022-11-21T09:02:05.318Z,7.70
2022-11-21T09:04:31.981Z,7.70
2022-11-21T09:06:58.682Z,7.70
2022-11-21T09:09:25.834Z,7.70
2022-11-21T09:11:52.860Z,7.70
2022-11-21T09:14:38.219Z,7.70
2022-11-21T09:17:23.453Z,7.70
2022-11-21T09:19:50.045Z,7.70
2022-11-21T09:22:16.701Z,7.80
2022-11-21T09:24:43.288Z,7.80
2022-11-21T09:27:09.881Z,7.70
2022-11-21T09:29:36.566Z,7.80
2022-11-21T09:32:03.189Z,7.80
2022-11-21T09:34:31.752Z,7.80
2022-11-21T09:36:58.582Z,7.80
2022-11-21T09:39:25.737Z,7.80
2022-11-21T09:41:59.560Z,7.80
2022-11-21T09:44:47.656Z,7.80
2022-11-21T09:47:23.356Z,7.80
2022-11-21T09:49:56.838Z,7.80
2022-11-21T09:52:47.158Z,7.80
2022-11-21T09:55:56.878Z,7.80
2022-11-21T09:58:42.405Z,7.80
2022-11-21T10:01:16.338Z,7.80
2022-11-21T10:03:49.074Z,7.80
2022-11-21T10:06:25.201Z,7.80
2022-11-21T10:09:10.232Z,7.80
2022-11-21T10:12:33.108Z,7.80
2022-11-21T10:15:14.825Z,7.80
2022-11-21T10:18:09.710Z,7.90
2022-11-21T10:20:59.510Z,7.90
2022-11-21T10:23:52.787Z,7.90
2022-11-21T10:26:52.154Z,7.90
2022-11-21T10:29:40.080Z,7.90
2022-11-21T10:32:27.166Z,7.90
2022-11-21T10:34:58.522Z,7.90
2022-11-21T10:37:35.512Z,7.90
2022-11-21T10:40:23.951Z,7.90
2022-11-21T10:42:56.416Z,7.90
2022-11-21T10:45:23.488Z,7.90
2022-11-21T10:47:51.696Z,7.90
2022-11-21T10:50:33.581Z,7.90
2022-11-21T10:53:29.509Z,7.90
2022-11-21T10:56:02.289Z,8.00
2022-11-21T10:58:36.868Z,8.00
2022-11-21T11:01:03.889Z,8.00
2022-11-21T11:03:31.961Z,8.00
2022-11-21T11:05:58.591Z,8.00
2022-11-21T11:08:27.559Z,8.00
2022-11-21T11:11:12.297Z,8.00
2022-11-21T11:14:13.319Z,8.00
2022-11-21T11:16:45.734Z,8.00
2022-11-21T11:19:15.100Z,8.00
2022-11-21T11:21:44.553Z,8.00
2022-11-21T11:24:11.071Z,8.00
2022-11-21T11:26:48.144Z,8.00
2022-11-21T11:29:18.428Z,8.00
2022-11-21T11:31:50.384Z,8.10
2022-11-21T11:34:17.796Z,8.00
2022-11-21T11:37:04.665Z,8.00
2022-11-21T11:39:41.293Z,8.10
2022-11-21T11:42:51.163Z,8.10
2022-11-21T11:45:54.621Z,8.10
2022-11-21T11:48:21.851Z,8.10
2022-11-21T11:51:01.903Z,8.10
2022-11-21T11:53:40.643Z,8.10
2022-11-21T11:56:22.604Z,8.10
2022-11-21T11:58:54.776Z,8.10
2022-11-21T12:01:39.073Z,8.10
2022-11-21T12:04:12.584Z,8.10
2022-11-21T12:10:18.232Z,8.10
2022-11-21T12:13:10.296Z,8.10
2022-11-21T12:15:50.902Z,8.10
2022-11-21T12:18:20.594Z,8.10
2022-11-21T12:20:52.978Z,8.10
2022-11-21T12:23:20.408Z,8.10
2022-11-21T12:26:05.189Z,8.20
2022-11-21T12:28:39.311Z,8.20
2022-11-21T12:31:32.605Z,8.20
2022-11-21T12:34:13.495Z,8.10
2022-11-21T12:37:03.179Z,8.20
2022-11-21T12:39:40.111Z,8.20
2022-11-21T12:42:49.695Z,8.20
2022-11-21T12:45:30.425Z,8.20
2022-11-21T12:48:27.658Z,8.20
2022-11-21T12:51:24.518Z,8.20
2022-11-21T12:54:19.905Z,8.20
2022-11-21T12:56:56.137Z,8.20
2022-11-21T12:59:25.449Z,8.20
2022-11-21T13:02:16.059Z,8.20
2022-11-21T13:04:45.001Z,8.30
2022-11-21T13:07:12.240Z,8.30
2022-11-21T13:09:43.279Z,8.30
2022-11-21T13:12:21.770Z,8.30
2022-11-21T13:15:10.120Z,8.30
2022-11-21T13:17:45.855Z,8.30
2022-11-21T13:20:28.215Z,8.30
2022-11-21T13:23:00.141Z,8.30
2022-11-21T13:25:32.702Z,8.30
2022-11-21T13:28:17.486Z,8.30
2022-11-21T13:30:54.344Z,8.40
2022-11-21T13:33:36.167Z,8.40
2022-11-21T13:36:12.527Z,8.40
2022-11-21T13:38:51.344Z,8.30
2022-11-21T13:41:55.117Z,8.30
2022-11-21T13:44:30.855Z,8.40
2022-11-21T13:47:56.663Z,8.40
2022-11-21T13:50:51.577Z,8.40
2022-11-21T13:54:12.150Z,8.40
2022-11-21T13:56:53.580Z,8.40
2022-11-21T13:59:35.408Z,8.40
2022-11-21T14:02:23.495Z,8.40
2022-11-21T14:04:58.618Z,8.40
2022-11-21T14:07:31.016Z,8.40
2022-11-21T14:10:00.668Z,8.40
2022-11-21T14:12:38.276Z,8.50
2022-11-21T14:15:30.977Z,8.40
2022-11-21T14:17:59.487Z,8.50
2022-11-21T14:20:34.331Z,8.40
2022-11-21T14:23:04.400Z,8.40
2022-11-21T14:25:44.650Z,8.50
2022-11-21T14:28:29.108Z,8.50
2022-11-21T14:30:58.312Z,8.50
2022-11-21T14:33:29.244Z,8.50
2022-11-21T14:36:13.716Z,8.50
2022-11-21T14:39:13.720Z,8.50
2022-11-21T14:41:39.327Z,8.50
2022-11-21T14:44:15.259Z,8.50
2022-11-21T14:46:42.872Z,8.50
2022-11-21T14:49:27.059Z,8.50
2022-11-21T14:52:18.383Z,8.50
2022-11-21T14:55:28.619Z,8.50
2022-11-21T14:57:42.553Z,8.50
2022-11-21T15:00:35.991Z,8.50
2022-11-21T15:03:03.369Z,8.50
2022-11-21T15:05:54.899Z,8.50
2022-11-21T15:11:13.569Z,8.50
2022-11-21T15:14:06.790Z,8.50
2022-11-21T15:16:27.931Z,8.50
2022-11-21T15:18:55.009Z,8.50
2022-11-21T15:21:21.570Z,8.50
2022-11-21T15:23:48.633Z,8.60
2022-11-21T15:26:35.557Z,8.50
2022-11-21T15:29:02.198Z,8.60
2022-11-21T15:31:28.976Z,8.60
2022-11-21T15:34:19.205Z,8.60
2022-11-21T15:36:42.172Z,8.60
2022-11-21T15:39:21.802Z,8.60
2022-11-21T15:41:48.412Z,8.60
2022-11-21T15:44:20.792Z,8.60
2022-11-21T15:46:50.756Z,8.60
2022-11-21T15:49:33.817Z,8.60
2022-11-21T15:52:09.886Z,8.60
2022-11-21T15:54:48.508Z,8.60
2022-11-21T15:57:17.132Z,8.60
2022-11-21T15:59:44.896Z,8.60
2022-11-21T16:02:13.881Z,8.60
2022-11-21T16:04:42.034Z,8.60
2022-11-21T16:07:08.921Z,8.60
2022-11-21T16:09:36.459Z,8.60
2022-11-21T16:12:03.107Z,8.60
2022-11-21T16:14:29.744Z,8.60
2022-11-21T16:16:56.752Z,8.60
2022-11-21T16:19:23.387Z,8.60
2022-11-21T16:21:50.016Z,8.60
2022-11-21T16:24:16.824Z,8.50
2022-11-21T16:26:43.732Z,8.50
2022-11-21T16:29:10.823Z,8.50
2022-11-21T16:31:37.452Z,8.50
2022-11-21T16:34:04.199Z,8.60
2022-11-21T16:36:31.770Z,8.60
2022-11-21T16:39:07.711Z,8.60
2022-11-21T16:41:37.065Z,8.60
2022-11-21T16:44:03.809Z,8.60
2022-11-21T16:46:30.440Z,8.60
2022-11-21T16:49:01.850Z,8.60
2022-11-21T16:51:29.287Z,8.60
2022-11-21T16:53:57.339Z,8.60
2022-11-21T16:56:24.619Z,8.50
2022-11-21T16:58:51.299Z,8.50
2022-11-21T17:01:25.500Z,8.60
2022-11-21T17:03:55.008Z,8.50
2022-11-21T17:06:27.071Z,8.50
2022-11-21T17:08:54.083Z,8.50
2022-11-21T17:11:29.481Z,8.50
2022-11-21T17:13:59.540Z,8.50
2022-11-21T17:16:26.386Z,8.50
2022-11-21T17:18:53.990Z,8.50
2022-11-21T17:21:20.593Z,8.50
2022-11-21T17:23:48.178Z,8.50
2022-11-21T17:26:17.476Z,8.50
2022-11-21T17:28:46.100Z,8.50
2022-11-21T17:31:15.406Z,8.50
2022-11-21T17:33:43.578Z,8.50
2022-11-21T17:36:14.855Z,8.50
2022-11-21T17:38:43.140Z,8.50
2022-11-21T17:41:13.644Z,8.50
2022-11-21T17:43:40.830Z,8.50
2022-11-21T17:46:18.184Z,8.40
2022-11-21T17:48:51.241Z,8.40
2022-11-21T17:51:24.305Z,8.50
2022-11-21T17:53:51.575Z,8.40
2022-11-21T17:56:20.653Z,8.40
2022-11-21T17:58:47.733Z,8.50
2022-11-21T18:01:19.165Z,8.50
2022-11-21T18:04:08.946Z,8.40
2022-11-21T18:06:40.224Z,8.40
2022-11-21T18:09:07.979Z,8.40
2022-11-21T18:11:39.674Z,8.40
2022-11-21T18:14:07.524Z,8.40
2022-11-21T18:16:34.307Z,8.40
2022-11-21T18:19:01.105Z,8.40
2022-11-21T18:21:30.171Z,8.40
2022-11-21T18:23:59.611Z,8.50
2022-11-21T18:26:28.768Z,8.50
2022-11-21T18:29:20.777Z,8.50
2022-11-21T18:31:44.300Z,8.50
2022-11-21T18:34:12.156Z,8.50
2022-11-21T18:36:38.838Z,8.50
2022-11-21T18:39:12.188Z,8.50
2022-11-21T18:41:41.201Z,8.50
2022-11-21T18:44:07.954Z,8.50
2022-11-21T18:46:36.977Z,8.50
2022-11-21T18:49:06.331Z,8.50
2022-11-21T18:51:33.885Z,8.50
2022-11-21T18:54:05.407Z,8.50
2022-11-21T18:56:32.307Z,8.50
2022-11-21T18:58:59.423Z,8.50
2022-11-21T19:01:28.341Z,8.50
2022-11-21T19:03:55.933Z,8.50
2022-11-21T19:06:24.049Z,8.50
2022-11-21T19:08:55.422Z,8.50
2022-11-21T19:11:24.671Z,8.40
2022-11-21T19:13:52.498Z,8.40
2022-11-21T19:16:20.902Z,8.40
2022-11-21T19:19:11.719Z,8.50
2022-11-21T19:21:38.974Z,8.50
2022-11-21T19:24:07.042Z,8.50
2022-11-21T19:26:33.627Z,8.50
2022-11-21T19:29:00.239Z,8.40
2022-11-21T19:31:26.942Z,8.50
2022-11-21T19:33:53.654Z,8.50
2022-11-21T19:36:22.110Z,8.50
2022-11-21T19:38:51.965Z,8.50
2022-11-21T19:41:21.307Z,8.50
2022-11-21T19:43:47.896Z,8.50
2022-11-21T19:46:16.631Z,8.50
2022-11-21T19:48:46.711Z,8.50
2022-11-21T19:51:13.620Z,8.50
2022-11-21T19:53:40.334Z,8.50
2022-11-21T19:56:14.966Z,8.50
2022-11-21T19:58:42.603Z,8.50
2022-11-21T20:01:11.917Z,8.50
2022-11-21T20:03:40.290Z,8.50
2022-11-21T20:06:27.087Z,8.50
2022-11-21T20:08:58.981Z,8.60
2022-11-21T20:11:26.916Z,8.50
2022-11-21T20:13:53.704Z,8.50
2022-11-21T20:16:27.117Z,8.50
2022-11-21T20:18:57.749Z,8.50
2022-11-21T20:21:25.222Z,8.50
2022-11-21T20:23:51.887Z,8.50
2022-11-21T20:26:20.275Z,8.50
2022-11-21T20:28:47.264Z,8.50
2022-11-21T20:31:19.338Z,8.50
2022-11-21T20:33:48.425Z,8.50
2022-11-21T20:36:19.349Z,8.50
2022-11-21T20:39:02.512Z,8.50
2022-11-21T20:41:31.404Z,8.50
2022-11-21T20:44:53.289Z,8.50
2022-11-21T20:46:50.728Z,8.50
2022-11-21T20:49:17.708Z,8.50
2022-11-21T20:54:31.482Z,8.50
2022-11-21T20:56:58.328Z,8.50
2022-11-21T20:59:26.396Z,8.50
2022-11-21T21:01:53.198Z,8.50
2022-11-21T21:04:19.910Z,8.40
2022-11-21T21:06:46.483Z,8.40
2022-11-21T21:09:13.102Z,8.40
2022-11-21T21:11:54.902Z,8.40
2022-11-21T21:14:22.492Z,8.40
2022-11-21T21:16:49.707Z,8.40
2022-11-21T21:19:17.340Z,8.40
2022-11-21T21:21:43.990Z,8.40
2022-11-21T21:24:11.492Z,8.40
2022-11-21T21:26:46.607Z,8.40
2022-11-21T21:29:16.386Z,8.40
2022-11-21T21:31:49.892Z,8.40
2022-11-21T21:34:17.388Z,8.40
2022-11-21T21:36:43.993Z,8.40
2022-11-21T21:39:10.600Z,8.40
2022-11-21T21:41:40.124Z,8.40
2022-11-21T21:44:06.994Z,8.40
2022-11-21T21:46:33.648Z,8.40
2022-11-21T21:49:00.220Z,8.40
2022-11-21T21:51:29.071Z,8.40
2022-11-21T21:53:57.401Z,8.40
2022-11-21T21:56:26.835Z,8.40
2022-11-21T21:58:54.256Z,8.40
2022-11-21T22:01:26.297Z,8.40
2022-11-21T22:03:54.813Z,8.40
2022-11-21T22:06:21.735Z,8.40
2022-11-21T22:08:49.577Z,8.40
2022-11-21T22:11:21.432Z,8.30
2022-11-21T22:13:52.440Z,8.40
2022-11-21T22:16:19.090Z,8.30
2022-11-21T22:18:45.710Z,8.30
2022-11-21T22:21:25.543Z,8.30
2022-11-21T22:26:38.992Z,8.30
2022-11-21T22:29:05.989Z,8.30
2022-11-21T22:31:33.284Z,8.30
2022-11-21T22:34:00.418Z,8.30
2022-11-21T22:36:27.004Z,8.30
2022-11-21T22:38:54.828Z,8.30
2022-11-21T22:41:26.503Z,8.30
2022-11-21T22:43:58.426Z,8.30
2022-11-21T22:46:29.647Z,8.30
2022-11-21T22:48:56.654Z,8.30
2022-11-21T22:51:26.195Z,8.30
2022-11-21T22:53:53.158Z,8.20
2022-11-21T22:56:22.061Z,8.30
2022-11-21T22:58:49.411Z,8.20
2022-11-21T23:01:19.153Z,8.30
2022-11-21T23:03:46.314Z,8.20
2022-11-21T23:06:18.178Z,8.30
2022-11-21T23:08:45.252Z,8.20
2022-11-21T23:11:13.044Z,8.30
2022-11-21T23:13:41.127Z,8.20
2022-11-21T23:16:08.450Z,8.20
2022-11-21T23:18:35.325Z,8.20
2022-11-21T23:21:02.390Z,8.20
2022-11-21T23:23:29.221Z,8.20
2022-11-21T23:25:55.857Z,8.20
2022-11-21T23:28:22.510Z,8.10
2022-11-21T23:30:50.149Z,8.10
2022-11-21T23:33:17.072Z,8.10
2022-11-21T23:35:44.782Z,8.10
2022-11-21T23:38:11.839Z,8.10
2022-11-21T23:40:38.463Z,8.10
2022-11-21T23:43:05.368Z,8.10
2022-11-21T23:45:32.196Z,8.10
2022-11-21T23:47:58.798Z,8.10
2022-11-21T23:50:25.403Z,8.10
2022-11-21T23:52:52.022Z,8.10
2022-11-21T23:55:18.789Z,8.10
2022-11-21T23:57:48.363Z,8.10
